< < Back
Terminal Aerodrome Forecast


Current Version              Previous Versions:   1  2  3  4  5  6  7  8  9  

Terminal Aerodrome Forecast

598
FTUS42 KMLB 182000 AAA
TAFMCO
TAF AMD
KMCO 182059Z 1821/1918 29007KT P6SM SCT190 BKN250
     FM190100 34002KT P6SM BKN250
     FM191400 01004KT P6SM BKN250
     FM191600 04006KT P6SM BKN250=



Latest METAR

609
SAUS70 KWBC 190958
MTRMCO
METAR KMCO 190953Z 35003KT 10SM SCT170 BKN250 12/11 A3010 RMK AO2 SLP193
T01170106


USA.gov is the U.S. government's official web portal to all federal, state and local government web resources and services.